Time;durP1;ratioP1;P1;durP2;ratioP2;P2;SDS_P1;SDS_P2;PMS_P1;PMS_P2;Temp;Humidity;BMP_temperature;BMP_pressure;BME280_temperature;BME280_humidity;BME280_pressure;Samples;Min_cycle;Max_cycle;Signal;HPM_P1;HPM_P2
2024/04/02 00:00:43;;;;;;;12.20;6.43;;;7.90;99.90;;;;;;5053539;28;20033;-69
2024/04/02 00:03:10;;;;;;;12.52;6.25;;;8.00;99.90;;;;;;5053266;28;20071;-69
2024/04/02 00:05:37;;;;;;;12.55;6.88;;;7.90;99.90;;;;;;5053465;28;20048;-69
2024/04/02 00:08:03;;;;;;;13.18;6.90;;;7.90;99.90;;;;;;5053364;28;20493;-69
2024/04/02 00:10:30;;;;;;;13.30;6.70;;;7.90;99.90;;;;;;5053468;28;20037;-69
2024/04/02 00:12:56;;;;;;;10.93;6.28;;;7.90;99.90;;;;;;5053483;28;20032;-69
2024/04/02 00:15:21;;;;;;;12.77;6.80;;;7.80;99.90;;;;;;5052180;28;20051;-69
2024/04/02 00:17:47;;;;;;;10.75;6.53;;;7.90;99.90;;;;;;5053532;28;20106;-70
2024/04/02 00:20:13;;;;;;;12.88;7.03;;;7.90;99.90;;;;;;5053128;28;20033;-69
2024/04/02 00:22:41;;;;;;;10.55;6.85;;;7.90;99.90;;;;;;5051416;28;20496;-69
2024/04/02 00:25:07;;;;;;;10.93;6.90;;;7.90;99.90;;;;;;5053086;28;20045;-69
2024/04/02 00:27:33;;;;;;;13.60;6.90;;;7.90;99.90;;;;;;5052235;28;20037;-69
2024/04/02 00:29:58;;;;;;;13.88;7.07;;;7.80;99.90;;;;;;5051625;28;20048;-69
2024/04/02 00:32:24;;;;;;;10.27;7.47;;;7.80;99.90;;;;;;5051784;28;20036;-69
2024/04/02 00:34:50;;;;;;;12.25;8.30;;;7.80;99.90;;;;;;5052613;28;20036;-68
2024/04/02 00:37:16;;;;;;;11.57;7.13;;;7.80;99.90;;;;;;5052890;28;20094;-69
2024/04/02 00:39:44;;;;;;;12.70;7.03;;;7.80;99.90;;;;;;5052940;28;20073;-69
2024/04/02 00:42:10;;;;;;;14.82;7.18;;;7.80;99.90;;;;;;5051929;28;20049;-69
2024/04/02 00:44:36;;;;;;;10.65;7.45;;;7.80;99.90;;;;;;5051457;28;20501;-69
2024/04/02 00:47:03;;;;;;;12.98;7.63;;;7.70;99.90;;;;;;5052913;28;20033;-69
2024/04/02 00:49:31;;;;;;;10.23;7.40;;;7.70;99.90;;;;;;5051244;28;20112;-68
2024/04/02 00:51:57;;;;;;;12.40;8.13;;;7.70;99.90;;;;;;5050448;28;20079;-69
2024/04/02 00:54:23;;;;;;;11.35;8.15;;;7.70;99.90;;;;;;5050973;28;20484;-68
2024/04/02 00:56:49;;;;;;;15.18;7.68;;;7.80;99.90;;;;;;5052629;28;20151;-69
2024/04/02 00:59:15;;;;;;;14.38;8.52;;;7.70;99.90;;;;;;5051054;28;20052;-69
2024/04/02 01:01:40;;;;;;;13.10;7.88;;;7.70;99.90;;;;;;5052556;28;20047;-69
2024/04/02 01:04:06;;;;;;;13.93;8.10;;;7.70;99.90;;;;;;5050723;28;20048;-69
2024/04/02 01:06:32;;;;;;;19.75;9.23;;;7.70;99.90;;;;;;5050891;28;20033;-69
2024/04/02 01:08:58;;;;;;;12.98;8.75;;;7.70;99.90;;;;;;5050794;28;20108;-69
2024/04/02 01:11:25;;;;;;;16.88;8.60;;;7.70;99.90;;;;;;5052172;28;20036;-69
2024/04/02 01:13:51;;;;;;;14.50;8.20;;;7.70;99.90;;;;;;5051920;28;20036;-69
2024/04/02 01:16:21;;;;;;;12.50;8.60;;;7.70;99.90;;;;;;5052177;28;20087;-69
2024/04/02 01:18:47;;;;;;;13.35;8.32;;;7.70;99.90;;;;;;5050851;28;20041;-69
2024/04/02 01:21:13;;;;;;;13.65;8.30;;;7.70;99.90;;;;;;5050639;28;20033;-69
2024/04/02 01:23:39;;;;;;;15.43;8.45;;;7.70;99.90;;;;;;5050604;28;20032;-69
2024/04/02 01:26:04;;;;;;;12.80;8.32;;;7.70;99.90;;;;;;5052069;28;20033;-69
2024/04/02 01:28:30;;;;;;;14.27;9.02;;;7.70;99.90;;;;;;5052133;28;20041;-71
2024/04/02 01:30:56;;;;;;;14.98;8.43;;;7.70;99.90;;;;;;5051693;28;20029;-71
2024/04/02 01:33:21;;;;;;;13.40;9.43;;;7.80;99.90;;;;;;5051384;28;20036;-71
2024/04/02 01:35:47;;;;;;;14.70;8.98;;;7.70;99.90;;;;;;5051744;28;20120;-71
2024/04/02 01:38:12;;;;;;;14.45;8.98;;;7.70;99.90;;;;;;5050639;28;20120;-71
2024/04/02 01:40:38;;;;;;;15.23;9.27;;;7.70;99.90;;;;;;5050289;28;20053;-72
2024/04/02 01:43:05;;;;;;;16.17;8.70;;;7.70;99.90;;;;;;5051414;28;20464;-69
2024/04/02 01:45:31;;;;;;;13.75;8.82;;;7.70;99.90;;;;;;5050267;28;20519;-69
2024/04/02 01:47:57;;;;;;;13.95;10.02;;;7.70;99.90;;;;;;5050383;28;20041;-69
2024/04/02 01:50:23;;;;;;;16.17;9.70;;;7.70;99.90;;;;;;5051377;28;20186;-70
2024/04/02 01:52:48;;;;;;;13.05;9.05;;;7.80;99.90;;;;;;5051437;28;20040;-69
2024/04/02 01:55:14;;;;;;;18.55;9.93;;;7.70;99.90;;;;;;5050564;28;20405;-69
2024/04/02 01:57:40;;;;;;;14.82;10.07;;;7.70;99.90;;;;;;5050601;28;20037;-71
2024/04/02 02:00:06;;;;;;;15.65;9.73;;;7.70;99.90;;;;;;5050102;28;20037;-69
2024/04/02 02:02:32;;;;;;;15.48;9.35;;;7.70;99.90;;;;;;5049416;28;20049;-69
2024/04/02 02:04:57;;;;;;;18.80;9.70;;;7.70;99.90;;;;;;5050215;28;20127;-69
2024/04/02 02:07:23;;;;;;;14.35;10.25;;;7.70;99.90;;;;;;5033864;28;20037;-69
2024/04/02 02:09:48;;;;;;;17.58;10.50;;;7.60;99.90;;;;;;5051352;28;20063;-69
2024/04/02 02:12:14;;;;;;;18.88;11.32;;;7.60;99.90;;;;;;5051484;28;20040;-69
2024/04/02 02:14:40;;;;;;;16.90;11.07;;;7.60;99.90;;;;;;5051002;28;20485;-69
2024/04/02 02:17:05;;;;;;;18.60;10.90;;;7.50;99.90;;;;;;5051215;28;20040;-69
2024/04/02 02:19:31;;;;;;;17.02;10.98;;;7.60;99.90;;;;;;5051312;28;20077;-69
2024/04/02 02:21:56;;;;;;;16.83;11.73;;;7.60;99.90;;;;;;5051562;28;20040;-69
2024/04/02 02:24:22;;;;;;;18.02;11.43;;;7.60;99.90;;;;;;5050908;28;20041;-69
2024/04/02 02:26:48;;;;;;;18.52;11.32;;;7.60;99.90;;;;;;5049969;28;20078;-68
2024/04/02 02:29:13;;;;;;;16.63;10.55;;;7.70;99.90;;;;;;5050342;28;20094;-69
2024/04/02 02:31:39;;;;;;;16.90;11.23;;;7.50;99.90;;;;;;5051147;28;20507;-69
2024/04/02 02:34:05;;;;;;;20.98;11.30;;;7.70;99.90;;;;;;5051025;28;20037;-69
2024/04/02 02:36:31;;;;;;;21.02;11.52;;;7.60;99.90;;;;;;5049831;28;20041;-69
2024/04/02 02:38:57;;;;;;;21.70;12.07;;;7.60;99.90;;;;;;5051400;28;20116;-69
2024/04/02 02:41:22;;;;;;;19.45;11.60;;;7.60;99.90;;;;;;5050900;28;20060;-69
2024/04/02 02:43:48;;;;;;;23.38;12.18;;;7.60;99.90;;;;;;5050727;28;20036;-69
2024/04/02 02:46:14;;;;;;;20.63;12.55;;;7.60;99.90;;;;;;5049526;28;20124;-69
2024/04/02 02:48:39;;;;;;;19.77;12.05;;;7.60;99.90;;;;;;5051072;28;20040;-69
2024/04/02 02:51:06;;;;;;;22.90;13.50;;;7.60;99.90;;;;;;5049634;28;20120;-69
2024/04/02 02:53:32;;;;;;;21.90;11.70;;;7.60;99.90;;;;;;5049347;28;20408;-69
2024/04/02 02:56:00;;;;;;;18.58;11.63;;;7.70;99.90;;;;;;5051109;28;20045;-69
2024/04/02 02:58:26;;;;;;;19.73;11.70;;;7.70;99.90;;;;;;5049768;28;20524;-72
2024/04/02 03:00:52;;;;;;;19.98;12.25;;;7.70;99.90;;;;;;5050725;28;20064;-69
2024/04/02 03:03:17;;;;;;;21.52;13.45;;;7.70;99.90;;;;;;5050549;28;20527;-69
2024/04/02 03:05:53;;;;;;;20.38;13.38;;;7.80;99.90;;;;;;5049598;28;20558;-69
2024/04/02 03:08:19;;;;;;;21.65;13.40;;;7.80;99.90;;;;;;5051094;28;20404;-69
2024/04/02 03:10:59;;;;;;;21.85;13.75;;;7.80;99.90;;;;;;5049545;28;20041;-69
2024/04/02 03:13:25;;;;;;;23.10;13.10;;;7.90;99.90;;;;;;5050462;28;20443;-69
2024/04/02 03:15:51;;;;;;;22.45;12.13;;;7.80;99.90;;;;;;5054354;28;20047;-69
2024/04/02 03:18:17;;;;;;;19.92;12.00;;;8.00;99.90;;;;;;5053226;28;20091;-69
2024/04/02 03:20:42;;;;;;;22.02;12.65;;;7.90;99.90;;;;;;5054328;28;20405;-69
2024/04/02 03:23:10;;;;;;;23.98;12.73;;;7.90;99.90;;;;;;5054048;28;20471;-69
2024/04/02 03:25:36;;;;;;;19.00;11.50;;;7.90;99.90;;;;;;5054200;28;20045;-69
2024/04/02 03:28:03;;;;;;;16.70;10.90;;;7.90;99.90;;;;;;5052990;28;20041;-69
2024/04/02 03:30:28;;;;;;;21.02;11.30;;;7.90;99.90;;;;;;5054038;28;20041;-69
2024/04/02 03:32:54;;;;;;;16.85;11.23;;;7.90;99.90;;;;;;5053894;28;20090;-69
2024/04/02 03:35:19;;;;;;;15.70;10.63;;;7.80;99.90;;;;;;5053061;28;20064;-69
2024/04/02 03:37:45;;;;;;;18.05;10.70;;;7.80;99.90;;;;;;5054201;28;20045;-69
2024/04/02 03:40:11;;;;;;;16.70;10.40;;;7.80;99.90;;;;;;5053863;28;20120;-69
2024/04/02 03:42:36;;;;;;;16.52;10.20;;;7.80;99.90;;;;;;5053322;28;20584;-70
2024/04/02 03:45:02;;;;;;;15.30;10.52;;;7.80;99.90;;;;;;5053957;28;20048;-69
2024/04/02 03:47:27;;;;;;;12.77;9.15;;;7.80;99.90;;;;;;5054009;28;20143;-69
2024/04/02 03:49:53;;;;;;;13.38;9.20;;;7.80;99.90;;;;;;5052393;28;20041;-69
2024/04/02 03:52:19;;;;;;;15.52;10.40;;;7.80;99.90;;;;;;5052593;28;20408;-69
2024/04/02 03:54:44;;;;;;;16.85;10.80;;;7.80;99.90;;;;;;5052040;28;20052;-69
2024/04/02 03:57:10;;;;;;;15.52;10.75;;;7.80;99.90;;;;;;5052344;28;20041;-69
2024/04/02 03:59:36;;;;;;;16.23;9.93;;;7.70;99.90;;;;;;5052438;28;20420;-69
2024/04/02 04:02:02;;;;;;;15.57;9.60;;;7.70;99.90;;;;;;5053645;28;20546;-69
2024/04/02 04:04:28;;;;;;;14.80;9.88;;;7.70;99.90;;;;;;5051893;28;20091;-69
2024/04/02 04:06:55;;;;;;;16.08;11.50;;;7.70;99.90;;;;;;5052500;28;20037;-68
2024/04/02 04:09:21;;;;;;;15.77;9.88;;;7.70;99.90;;;;;;5052222;28;20444;-69
2024/04/02 04:11:47;;;;;;;20.42;10.63;;;7.70;99.90;;;;;;5052167;28;20040;-69
2024/04/02 04:14:13;;;;;;;15.35;10.30;;;7.70;99.90;;;;;;5052009;28;20045;-70
2024/04/02 04:16:39;;;;;;;17.65;10.88;;;7.70;99.90;;;;;;5053356;28;20126;-70
2024/04/02 04:19:04;;;;;;;14.48;9.85;;;7.60;99.90;;;;;;5052181;28;20045;-69
2024/04/02 04:21:30;;;;;;;15.70;10.55;;;7.70;99.90;;;;;;5051765;28;20040;-69
2024/04/02 04:23:56;;;;;;;14.45;9.88;;;7.60;99.90;;;;;;5052873;28;20037;-69
2024/04/02 04:26:22;;;;;;;16.13;9.77;;;7.60;99.90;;;;;;5051383;28;20037;-69
2024/04/02 04:28:47;;;;;;;15.73;9.80;;;7.60;99.90;;;;;;5053438;28;20130;-69
2024/04/02 04:31:13;;;;;;;14.57;10.18;;;7.60;99.90;;;;;;5053047;28;20416;-69
2024/04/02 04:33:38;;;;;;;14.10;10.07;;;7.50;99.90;;;;;;5052741;28;20044;-69
2024/04/02 04:36:04;;;;;;;17.27;10.52;;;7.60;99.90;;;;;;5053055;28;20032;-69
2024/04/02 04:38:30;;;;;;;16.50;10.65;;;7.60;99.90;;;;;;5052998;28;20471;-71
2024/04/02 04:40:56;;;;;;;16.48;10.38;;;7.50;99.90;;;;;;5052570;28;20102;-71
2024/04/02 04:43:21;;;;;;;16.13;10.50;;;7.50;99.90;;;;;;5051459;28;20040;-69
2024/04/02 04:46:13;;;;;;;19.58;11.45;;;7.50;99.90;;;;;;5052726;28;20560;-69
2024/04/02 04:48:39;;;;;;;16.05;10.25;;;7.50;99.90;;;;;;5051578;28;20048;-69
2024/04/02 04:51:05;;;;;;;15.90;10.77;;;7.50;99.90;;;;;;5051232;28;20112;-69
2024/04/02 04:53:32;;;;;;;13.88;9.63;;;7.50;99.90;;;;;;5052139;28;20071;-69
2024/04/02 04:56:03;;;;;;;18.98;9.70;;;7.50;99.90;;;;;;5051609;28;20448;-69
2024/04/02 04:58:28;;;;;;;16.08;10.45;;;7.50;99.90;;;;;;5052661;28;20080;-69
2024/04/02 05:00:55;;;;;;;16.23;9.70;;;7.40;99.90;;;;;;5052299;28;20068;-69
2024/04/02 05:03:20;;;;;;;15.52;8.98;;;7.40;99.90;;;;;;5050632;28;20047;-69
2024/04/02 05:05:47;;;;;;;16.55;10.48;;;7.40;99.90;;;;;;5050650;28;20045;-70
2024/04/02 05:08:18;;;;;;;19.25;10.50;;;7.40;99.90;;;;;;5052324;28;20079;-70
2024/04/02 05:10:49;;;;;;;14.13;9.60;;;7.40;99.90;;;;;;5050490;28;20037;-69
2024/04/02 05:13:15;;;;;;;14.70;9.98;;;7.40;99.90;;;;;;5051862;28;20037;-70
2024/04/02 05:15:41;;;;;;;16.80;9.65;;;7.40;99.90;;;;;;5050880;28;20037;-70
2024/04/02 05:18:07;;;;;;;14.27;9.45;;;7.50;99.90;;;;;;5052186;28;20463;-70
2024/04/02 05:20:33;;;;;;;19.02;9.98;;;7.50;99.90;;;;;;5051771;28;20382;-71
2024/04/02 05:22:59;;;;;;;12.50;9.07;;;7.50;99.90;;;;;;5051670;28;20043;-70
2024/04/02 05:25:24;;;;;;;16.45;9.68;;;7.50;99.90;;;;;;5050719;28;20048;-70
2024/04/02 05:27:50;;;;;;;12.30;9.43;;;7.40;99.90;;;;;;5050849;28;20036;-70
2024/04/02 05:30:16;;;;;;;15.07;9.57;;;7.50;99.90;;;;;;5050510;28;20512;-71
2024/04/02 05:32:42;;;;;;;13.38;8.50;;;7.50;99.90;;;;;;5051515;28;20033;-70
2024/04/02 05:35:07;;;;;;;12.30;9.68;;;7.50;99.90;;;;;;5051773;28;20512;-71
2024/04/02 05:37:35;;;;;;;14.18;9.57;;;7.50;99.90;;;;;;5051500;28;20036;-70
2024/04/02 05:40:04;;;;;;;12.32;9.27;;;7.50;99.90;;;;;;5049197;28;20051;-70
2024/04/02 05:42:32;;;;;;;13.48;8.50;;;7.50;99.90;;;;;;5050963;28;20048;-70
2024/04/02 05:44:58;;;;;;;14.65;8.65;;;7.50;99.90;;;;;;5050162;28;20124;-70
2024/04/02 05:47:24;;;;;;;15.23;9.27;;;7.60;99.90;;;;;;5050432;28;20409;-71
2024/04/02 05:49:49;;;;;;;12.38;8.40;;;7.70;99.90;;;;;;5050392;28;20063;-70
2024/04/02 05:52:16;;;;;;;13.70;8.80;;;7.70;99.90;;;;;;5050286;28;20045;-74
2024/04/02 05:54:42;;;;;;;11.40;8.07;;;7.80;99.90;;;;;;5050043;28;20045;-73
2024/04/02 05:57:08;;;;;;;11.85;8.13;;;7.80;99.90;;;;;;5051625;28;20405;-73
2024/04/02 05:59:34;;;;;;;11.43;8.65;;;7.90;99.90;;;;;;5050077;28;20040;-73
2024/04/02 06:01:59;;;;;;;12.10;8.38;;;7.90;99.90;;;;;;5051551;28;20477;-73
2024/04/02 06:04:25;;;;;;;12.38;8.70;;;8.00;99.90;;;;;;5050880;28;20567;-73
2024/04/02 06:06:51;;;;;;;16.98;8.95;;;8.00;99.90;;;;;;5049912;28;20040;-74
2024/04/02 06:09:19;;;;;;;13.30;9.00;;;8.10;99.90;;;;;;5051347;28;20119;-74
2024/04/02 06:11:44;;;;;;;12.93;8.15;;;8.20;99.90;;;;;;5050436;28;20048;-74
2024/04/02 06:14:10;;;;;;;12.00;8.40;;;8.30;99.90;;;;;;5049677;28;20120;-73
2024/04/02 06:16:36;;;;;;;12.10;8.73;;;8.50;99.90;;;;;;5051296;28;20048;-73
2024/04/02 06:19:01;;;;;;;13.60;7.90;;;8.50;99.90;;;;;;5050150;28;20044;-74
2024/04/02 06:21:27;;;;;;;13.32;8.73;;;8.70;99.90;;;;;;5049912;28;20037;-74
2024/04/02 06:23:53;;;;;;;13.10;8.73;;;8.80;99.90;;;;;;5049748;28;20100;-74
2024/04/02 06:26:19;;;;;;;12.98;7.85;;;9.00;99.90;;;;;;5049950;28;20084;-74
2024/04/02 06:28:44;;;;;;;16.17;8.15;;;9.20;99.90;;;;;;5050308;28;20037;-74
2024/04/02 06:31:10;;;;;;;12.13;8.07;;;9.40;99.90;;;;;;5049744;28;20037;-74
2024/04/02 06:33:36;;;;;;;9.30;7.30;;;9.50;99.90;;;;;;5049842;28;20037;-74
2024/04/02 06:36:02;;;;;;;11.00;7.70;;;9.70;99.90;;;;;;5051369;28;20037;-74
2024/04/02 06:38:27;;;;;;;9.95;7.38;;;9.90;99.90;;;;;;5050228;28;20493;-74
2024/04/02 06:40:53;;;;;;;9.25;7.05;;;10.00;99.90;;;;;;5049755;28;20033;-73
2024/04/02 06:43:18;;;;;;;9.13;6.80;;;10.20;99.90;;;;;;5033054;28;20045;-74
2024/04/02 06:45:58;;;;;;;9.48;7.15;;;10.30;99.90;;;;;;5049634;28;20083;-74
2024/04/02 06:48:24;;;;;;;8.10;6.43;;;10.40;99.90;;;;;;5049874;28;20041;-73
2024/04/02 06:51:00;;;;;;;9.27;6.55;;;10.50;99.90;;;;;;5053463;28;20132;-74
2024/04/02 06:53:27;;;;;;;9.65;6.13;;;10.60;99.90;;;;;;5053271;28;20055;-73
2024/04/02 06:55:52;;;;;;;10.32;6.10;;;10.70;99.90;;;;;;5053604;28;20041;-73
2024/04/02 06:58:19;;;;;;;10.73;5.80;;;10.90;99.90;;;;;;5053417;28;20045;-73
2024/04/02 07:00:45;;;;;;;9.20;6.22;;;11.10;99.90;;;;;;5053598;28;20396;-74
2024/04/02 07:03:19;;;;;;;10.50;5.47;;;11.10;99.90;;;;;;5053255;28;20037;-73
2024/04/02 07:05:46;;;;;;;8.32;5.82;;;11.30;99.90;;;;;;5054593;28;20048;-73
2024/04/02 07:08:12;;;;;;;8.95;5.65;;;11.40;99.90;;;;;;5054791;28;20083;-73
2024/04/02 07:10:45;;;;;;;13.30;5.68;;;11.50;99.90;;;;;;5053186;28;20072;-73
2024/04/02 07:13:12;;;;;;;7.78;5.03;;;11.60;99.90;;;;;;5054098;28;20037;-73
2024/04/02 07:15:40;;;;;;;9.48;6.20;;;11.70;99.90;;;;;;5054434;28;20471;-73
2024/04/02 07:18:06;;;;;;;9.07;5.28;;;11.90;99.90;;;;;;5053327;28;20076;-73
2024/04/02 07:20:32;;;;;;;9.55;5.15;;;12.00;99.90;;;;;;5053316;28;20176;-73
2024/04/02 07:22:59;;;;;;;6.50;4.70;;;12.10;99.90;;;;;;5053032;28;20131;-73
2024/04/02 07:25:25;;;;;;;7.95;5.43;;;12.10;99.90;;;;;;5052894;28;20044;-73
2024/04/02 07:27:51;;;;;;;7.72;5.30;;;12.20;99.90;;;;;;5053269;28;20086;-73
2024/04/02 07:30:17;;;;;;;8.45;5.32;;;12.20;99.90;;;;;;5053103;28;20037;-73
2024/04/02 07:32:42;;;;;;;7.32;5.63;;;12.40;99.90;;;;;;5052564;28;20037;-73
2024/04/02 07:35:08;;;;;;;8.02;4.72;;;12.50;99.90;;;;;;5052888;28;20106;-73
2024/04/02 07:37:34;;;;;;;5.63;4.63;;;12.60;99.90;;;;;;5054238;28;20025;-73
2024/04/02 07:39:59;;;;;;;9.23;5.30;;;12.50;99.90;;;;;;5052548;28;20119;-73
2024/04/02 07:42:25;;;;;;;8.20;5.43;;;12.30;99.90;;;;;;5052790;28;20037;-73
2024/04/02 07:44:51;;;;;;;6.75;4.35;;;12.30;99.90;;;;;;5053700;28;20401;-73
2024/04/02 07:47:17;;;;;;;8.40;4.78;;;12.30;99.90;;;;;;5052592;28;20055;-73
2024/04/02 07:49:42;;;;;;;6.70;4.82;;;12.40;99.90;;;;;;5052542;28;20029;-73
2024/04/02 07:52:08;;;;;;;6.88;5.28;;;12.10;99.90;;;;;;5036417;28;20045;-73
2024/04/02 07:54:33;;;;;;;8.82;6.07;;;12.20;99.90;;;;;;5052168;28;20484;-73
2024/04/02 07:56:59;;;;;;;10.73;4.95;;;12.20;99.90;;;;;;5053595;28;20087;-74
2024/04/02 07:59:25;;;;;;;11.63;5.70;;;12.10;99.90;;;;;;5053498;28;20539;-73
2024/04/02 08:01:51;;;;;;;8.45;5.03;;;12.20;99.90;;;;;;5052484;28;20583;-73
2024/04/02 08:04:17;;;;;;;7.80;4.95;;;12.00;99.90;;;;;;5051964;28;20067;-73
2024/04/02 08:06:45;;;;;;;11.90;4.55;;;11.90;99.90;;;;;;5053559;28;20041;-73
2024/04/02 08:09:11;;;;;;;12.82;6.70;;;11.80;99.90;;;;;;5052285;28;20039;-73
2024/04/02 08:11:38;;;;;;;9.45;5.90;;;11.70;99.90;;;;;;5035696;28;20116;-73
2024/04/02 08:14:04;;;;;;;9.25;5.43;;;11.70;99.90;;;;;;5051876;28;20045;-73
2024/04/02 08:16:33;;;;;;;9.80;5.70;;;11.70;99.90;;;;;;5052331;28;20408;-73
2024/04/02 08:18:59;;;;;;;10.27;6.00;;;11.60;99.90;;;;;;5053525;28;20175;-73
2024/04/02 08:21:24;;;;;;;11.52;6.15;;;11.70;99.90;;;;;;5053190;28;20120;-73
2024/04/02 08:23:50;;;;;;;9.75;6.68;;;11.70;99.90;;;;;;5051548;28;20080;-74
2024/04/02 08:26:16;;;;;;;11.68;7.07;;;11.70;99.90;;;;;;5053052;28;20041;-73
2024/04/02 08:28:41;;;;;;;10.93;7.95;;;11.80;99.90;;;;;;5051918;28;20029;-73
2024/04/02 08:31:07;;;;;;;11.45;7.18;;;11.90;99.90;;;;;;5051700;28;20068;-73
2024/04/02 08:33:33;;;;;;;9.63;6.93;;;11.70;99.90;;;;;;5051413;28;20036;-73
2024/04/02 08:35:59;;;;;;;10.75;6.35;;;11.70;99.90;;;;;;5051841;28;20420;-73
2024/04/02 08:38:24;;;;;;;11.70;7.32;;;11.70;99.90;;;;;;5048084;28;20125;-73
2024/04/02 08:40:52;;;;;;;15.35;6.80;;;11.70;99.90;;;;;;5048448;28;20051;-73
2024/04/02 08:43:18;;;;;;;11.88;7.18;;;11.60;99.90;;;;;;5042851;28;20040;-75
2024/04/02 08:45:45;;;;;;;10.32;7.38;;;11.50;99.90;;;;;;5051381;28;20037;-73
2024/04/02 08:48:11;;;;;;;14.48;7.07;;;11.70;99.90;;;;;;5052999;28;20063;-73
2024/04/02 08:50:40;;;;;;;12.23;7.30;;;11.90;99.90;;;;;;5052533;28;20041;-73
2024/04/02 08:53:06;;;;;;;13.27;7.03;;;11.90;99.90;;;;;;5049252;28;20037;-73
2024/04/02 08:55:37;;;;;;;15.27;7.18;;;11.90;99.90;;;;;;5045984;28;20056;-73
2024/04/02 08:58:03;;;;;;;12.80;6.90;;;11.80;99.90;;;;;;5051642;28;20040;-73
2024/04/02 09:00:29;;;;;;;13.93;7.05;;;11.90;99.90;;;;;;5051088;28;20044;-74
2024/04/02 09:02:56;;;;;;;11.32;7.75;;;12.00;99.90;;;;;;5052252;28;20036;-73
2024/04/02 09:05:23;;;;;;;12.88;7.50;;;11.90;99.90;;;;;;5051044;28;20045;-73
2024/04/02 09:07:50;;;;;;;9.40;6.30;;;11.90;99.90;;;;;;5051049;28;20095;-73
2024/04/02 09:10:15;;;;;;;16.00;7.75;;;11.90;99.90;;;;;;5042496;28;20078;-73
2024/04/02 09:12:41;;;;;;;10.45;6.53;;;11.80;99.90;;;;;;5049765;28;20451;-73
2024/04/02 09:15:07;;;;;;;13.68;6.82;;;12.00;99.90;;;;;;5051220;28;20044;-73
2024/04/02 09:17:34;;;;;;;12.98;6.72;;;12.10;99.90;;;;;;5051012;28;20493;-73
2024/04/02 09:20:00;;;;;;;9.57;6.70;;;12.20;99.90;;;;;;5051894;28;20051;-73
2024/04/02 09:22:26;;;;;;;13.88;6.00;;;12.20;99.90;;;;;;5051157;28;20512;-73
2024/04/02 09:24:51;;;;;;;9.48;6.10;;;12.20;99.90;;;;;;5050642;28;20091;-73
2024/04/02 09:27:18;;;;;;;15.93;6.03;;;12.10;99.90;;;;;;5051041;28;20588;-73
2024/04/02 09:29:44;;;;;;;11.50;5.82;;;12.10;99.90;;;;;;5050620;28;20076;-73
2024/04/02 09:32:10;;;;;;;13.25;6.80;;;12.20;99.90;;;;;;5050852;28;20079;-73
2024/04/02 09:34:38;;;;;;;10.35;7.40;;;12.20;99.90;;;;;;5050642;28;20072;-73
2024/04/02 09:37:15;;;;;;;11.48;5.90;;;12.30;99.90;;;;;;5050467;28;20041;-73
2024/04/02 09:39:42;;;;;;;16.67;6.32;;;12.60;99.90;;;;;;5050510;28;20033;-73
2024/04/02 09:42:10;;;;;;;12.82;7.00;;;12.80;99.90;;;;;;5050668;28;20041;-73
2024/04/02 09:44:39;;;;;;;14.60;6.43;;;12.80;99.90;;;;;;5050197;28;20037;-73
2024/04/02 09:47:06;;;;;;;9.63;6.13;;;12.90;99.90;;;;;;5050243;28;20125;-73
2024/04/02 09:49:33;;;;;;;10.25;5.60;;;12.90;99.90;;;;;;5051739;28;20043;-73
2024/04/02 09:52:02;;;;;;;12.20;5.90;;;12.70;99.90;;;;;;5033901;28;20109;-73
2024/04/02 09:54:33;;;;;;;10.70;5.07;;;12.60;99.90;;;;;;5050148;28;20097;-73
2024/04/02 09:57:00;;;;;;;8.02;5.22;;;12.60;99.90;;;;;;5050646;28;20512;-74
2024/04/02 09:59:25;;;;;;;10.02;4.57;;;12.50;99.90;;;;;;5051437;28;20075;-74
2024/04/02 10:01:52;;;;;;;9.05;4.90;;;12.30;99.90;;;;;;5051497;28;20068;-74
2024/04/02 10:04:22;;;;;;;11.50;6.05;;;12.30;99.90;;;;;;5049886;28;20049;-73
2024/04/02 10:06:48;;;;;;;11.98;4.65;;;12.30;99.90;;;;;;5050245;28;20052;-74
2024/04/02 10:09:15;;;;;;;21.20;5.47;;;12.20;99.90;;;;;;5050284;28;20033;-74
2024/04/02 10:11:43;;;;;;;10.02;4.65;;;12.30;99.90;;;;;;5050514;28;20446;-74
2024/04/02 10:14:11;;;;;;;11.98;4.85;;;12.40;99.90;;;;;;5049884;28;20052;-73
2024/04/02 10:16:41;;;;;;;9.48;3.90;;;12.40;99.90;;;;;;5043246;28;20501;-74
2024/04/02 10:19:28;;;;;;;9.23;4.28;;;12.40;99.90;;;;;;5038580;28;20049;-73
2024/04/02 10:21:54;;;;;;;11.48;4.50;;;12.30;99.90;;;;;;5030416;28;20045;-73
2024/04/02 10:24:25;;;;;;;11.73;4.95;;;12.40;99.90;;;;;;5032675;28;20052;-73
2024/04/02 10:26:51;;;;;;;11.45;5.25;;;12.40;99.90;;;;;;5034162;28;20053;-73
2024/04/02 10:29:28;;;;;;;11.07;5.95;;;12.50;99.90;;;;;;5034183;28;20099;-74
2024/04/02 10:31:56;;;;;;;11.27;5.03;;;12.50;99.90;;;;;;5034400;28;20040;-74
2024/04/02 10:34:24;;;;;;;15.15;6.93;;;12.50;99.90;;;;;;5034006;28;20116;-74
2024/04/02 10:36:50;;;;;;;10.98;5.65;;;12.60;99.90;;;;;;5035332;28;20038;-74
2024/04/02 10:39:16;;;;;;;15.02;5.55;;;12.50;99.90;;;;;;5033839;28;20041;-74
2024/04/02 10:41:45;;;;;;;13.93;5.53;;;12.40;99.90;;;;;;5034113;28;20386;-74
2024/04/02 10:44:11;;;;;;;12.07;5.78;;;12.30;99.90;;;;;;5033571;28;20124;-70
2024/04/02 10:46:40;;;;;;;10.60;4.82;;;12.40;99.90;;;;;;5034713;28;20116;-70
2024/04/02 10:49:05;;;;;;;13.18;5.63;;;12.40;99.90;;;;;;5035248;28;20064;-70
2024/04/02 10:51:32;;;;;;;11.20;5.72;;;12.40;99.90;;;;;;5033900;28;20468;-69
2024/04/02 10:53:59;;;;;;;11.20;5.57;;;12.40;99.90;;;;;;5034419;28;20037;-70
2024/04/02 10:56:26;;;;;;;11.85;6.07;;;12.30;99.90;;;;;;5034999;28;20038;-70
2024/04/02 10:58:54;;;;;;;12.75;7.50;;;12.30;99.90;;;;;;5034911;28;20513;-70
2024/04/02 11:01:21;;;;;;;12.18;6.82;;;12.50;99.90;;;;;;5034883;28;20103;-70
2024/04/02 11:03:49;;;;;;;10.15;6.20;;;12.70;99.90;;;;;;5033435;28;20378;-71
2024/04/02 11:06:16;;;;;;;12.80;7.63;;;13.00;99.90;;;;;;5034741;28;20417;-73
2024/04/02 11:08:43;;;;;;;13.07;6.95;;;13.20;99.90;;;;;;5034333;28;20041;-73
2024/04/02 11:11:19;;;;;;;11.77;6.32;;;13.00;99.90;;;;;;5016858;28;20029;-74
2024/04/02 11:13:44;;;;;;;18.52;6.47;;;13.00;99.90;;;;;;5034412;28;20037;-73
2024/04/02 11:16:10;;;;;;;11.00;5.72;;;13.10;99.90;;;;;;5033322;28;20044;-73
2024/04/02 11:18:36;;;;;;;9.95;5.88;;;13.10;99.90;;;;;;5033448;28;20041;-73
2024/04/02 11:21:02;;;;;;;10.85;6.05;;;13.20;99.90;;;;;;5032948;28;20417;-73
2024/04/02 11:26:18;;;;;;;13.60;6.18;;;13.10;99.90;;;;;;5034317;28;20417;-74
2024/04/02 11:28:44;;;;;;;10.13;5.68;;;13.20;99.90;;;;;;5034823;28;20045;-79
2024/04/02 11:31:14;;;;;;;9.50;5.93;;;13.40;99.90;;;;;;5036516;28;20037;-79
2024/04/02 11:33:41;;;;;;;10.60;6.18;;;13.40;99.90;;;;;;5034836;28;20044;-79
2024/04/02 11:36:07;;;;;;;12.63;5.75;;;13.50;99.90;;;;;;5033202;28;20041;-79
2024/04/02 11:38:39;;;;;;;16.73;6.88;;;13.50;99.90;;;;;;5034209;28;20049;-79
2024/04/02 11:41:09;;;;;;;9.53;6.50;;;13.60;99.90;;;;;;5033677;28;20037;-79
2024/04/02 11:43:35;;;;;;;10.00;5.35;;;13.70;99.90;;;;;;5033635;28;20853;-79
2024/04/02 11:46:03;;;;;;;9.35;5.05;;;13.70;99.90;;;;;;5033735;28;20124;-79
2024/04/02 11:48:31;;;;;;;12.20;5.45;;;13.90;99.90;;;;;;5033507;28;20045;-79
2024/04/02 11:50:57;;;;;;;10.05;4.78;;;13.90;99.90;;;;;;5016423;28;20051;-79
2024/04/02 11:53:23;;;;;;;6.88;4.95;;;14.00;99.90;;;;;;5033042;28;20029;-79
2024/04/02 11:55:52;;;;;;;11.15;4.95;;;14.00;99.90;;;;;;5032964;28;20045;-79
2024/04/02 12:01:02;;;;;;;8.90;4.30;;;14.10;99.90;;;;;;5033267;28;20073;-78
2024/04/02 12:03:29;;;;;;;10.25;4.78;;;14.20;99.90;;;;;;5032902;28;20541;-79
2024/04/02 12:05:54;;;;;;;6.68;4.10;;;14.10;99.90;;;;;;5033199;28;20046;-78
2024/04/02 12:08:20;;;;;;;9.98;3.75;;;14.10;99.90;;;;;;5035899;28;20030;-79
2024/04/02 12:10:46;;;;;;;11.25;4.35;;;14.10;99.90;;;;;;5037497;28;20219;-79
2024/04/02 12:13:11;;;;;;;8.60;3.63;;;14.00;99.90;;;;;;5037492;28;20042;-79
2024/04/02 12:15:37;;;;;;;12.73;3.60;;;13.90;99.90;;;;;;5033953;28;20417;-79
2024/04/02 12:18:02;;;;;;;8.57;4.20;;;13.90;99.90;;;;;;5035087;28;20128;-79
2024/04/02 12:20:28;;;;;;;4.90;2.60;;;14.00;99.90;;;;;;5034693;28;20047;-79
2024/04/02 12:22:54;;;;;;;4.22;2.58;;;14.00;99.90;;;;;;5033150;28;20037;-79
2024/04/02 12:25:20;;;;;;;3.63;2.25;;;13.90;99.90;;;;;;5033967;28;20095;-80
2024/04/02 12:27:46;;;;;;;6.00;2.60;;;14.00;99.90;;;;;;5039645;28;20552;-79
2024/04/02 12:30:11;;;;;;;5.80;2.83;;;13.80;99.90;;;;;;5037542;28;20029;-79
2024/04/02 12:32:38;;;;;;;6.60;3.10;;;13.80;99.90;;;;;;5034855;28;20037;-79
2024/04/02 12:35:04;;;;;;;6.60;2.95;;;13.70;99.90;;;;;;5032498;28;20046;-79
2024/04/02 12:37:30;;;;;;;8.38;3.25;;;13.60;99.90;;;;;;5032352;28;20084;-79
2024/04/02 12:39:55;;;;;;;7.00;2.90;;;13.60;99.90;;;;;;5032115;28;20072;-79
2024/04/02 12:42:21;;;;;;;6.65;2.40;;;13.70;99.90;;;;;;5033436;28;20041;-79
2024/04/02 12:44:48;;;;;;;4.85;2.80;;;13.70;99.90;;;;;;5032250;28;20413;-79